createdAt,value
2023-03-19T00:01:11.837Z,100.00
2023-03-19T00:03:40.521Z,100.00
2023-03-19T00:06:08.882Z,100.00
2023-03-19T00:08:36.803Z,100.00
2023-03-19T00:11:10.345Z,100.00
2023-03-19T00:13:38.723Z,100.00
2023-03-19T00:16:07.826Z,100.00
2023-03-19T00:18:36.489Z,100.00
2023-03-19T00:21:05.920Z,100.00
2023-03-19T00:23:34.160Z,100.00
2023-03-19T00:26:02.916Z,100.00
2023-03-19T00:28:31.415Z,100.00
2023-03-19T00:31:12.605Z,100.00
2023-03-19T00:33:41.219Z,100.00
2023-03-19T00:36:11.072Z,100.00
2023-03-19T00:38:39.322Z,100.00
2023-03-19T00:41:07.621Z,100.00
2023-03-19T00:43:35.860Z,100.00
2023-03-19T00:46:05.719Z,100.00
2023-03-19T00:48:34.406Z,100.00
2023-03-19T00:51:10.069Z,100.00
2023-03-19T00:53:42.381Z,100.00
2023-03-19T00:56:12.461Z,100.00
2023-03-19T00:58:44.153Z,100.00
2023-03-19T01:01:16.639Z,100.00
2023-03-19T01:03:46.306Z,100.00
2023-03-19T01:06:14.614Z,100.00
2023-03-19T01:08:42.572Z,100.00
2023-03-19T01:11:15.202Z,100.00
2023-03-19T01:13:43.836Z,100.00
2023-03-19T01:16:11.945Z,100.00
2023-03-19T01:18:39.959Z,100.00
2023-03-19T01:21:08.754Z,100.00
2023-03-19T01:23:43.747Z,100.00
2023-03-19T01:26:13.279Z,100.00
2023-03-19T01:28:41.663Z,100.00
2023-03-19T01:31:10.646Z,100.00
2023-03-19T01:34:06.690Z,100.00
2023-03-19T01:36:43.172Z,100.00
2023-03-19T01:39:12.835Z,100.00
2023-03-19T01:41:41.108Z,100.00
2023-03-19T01:44:36.677Z,100.00
2023-03-19T01:47:39.616Z,100.00
2023-03-19T01:50:32.119Z,100.00
2023-03-19T01:53:26.119Z,100.00
2023-03-19T01:56:28.614Z,100.00
2023-03-19T01:59:20.532Z,100.00
2023-03-19T02:02:19.533Z,100.00
2023-03-19T02:04:53.328Z,100.00
2023-03-19T02:07:22.601Z,100.00
2023-03-19T02:09:51.127Z,100.00
2023-03-19T02:12:19.485Z,100.00
2023-03-19T02:14:47.579Z,100.00
2023-03-19T02:17:15.966Z,100.00
2023-03-19T02:20:31.106Z,100.00
2023-03-19T02:23:33.472Z,100.00
2023-03-19T02:26:09.021Z,100.00
2023-03-19T02:28:42.455Z,100.00
2023-03-19T02:31:13.561Z,100.00
2023-03-19T02:33:41.767Z,100.00
2023-03-19T02:36:19.590Z,100.00
2023-03-19T02:38:48.906Z,100.00
2023-03-19T02:41:17.243Z,100.00
2023-03-19T02:43:45.475Z,100.00
2023-03-19T02:46:14.092Z,100.00
2023-03-19T02:48:42.714Z,100.00
2023-03-19T02:51:10.917Z,100.00
2023-03-19T02:53:39.285Z,100.00
2023-03-19T02:56:07.686Z,100.00
2023-03-19T02:58:36.060Z,100.00
2023-03-19T03:01:04.755Z,100.00
2023-03-19T03:03:33.002Z,100.00
2023-03-19T03:06:01.323Z,100.00
2023-03-19T03:08:29.586Z,100.00
2023-03-19T03:10:58.052Z,100.00
2023-03-19T03:13:26.138Z,100.00
2023-03-19T03:15:54.309Z,100.00
2023-03-19T03:18:23.155Z,100.00
2023-03-19T03:20:51.520Z,100.00
2023-03-19T03:23:20.162Z,100.00
2023-03-19T03:25:52.319Z,100.00
2023-03-19T03:28:20.412Z,100.00
2023-03-19T03:30:49.207Z,100.00
2023-03-19T03:33:17.514Z,100.00
2023-03-19T03:35:45.626Z,100.00
2023-03-19T03:38:13.690Z,100.00
2023-03-19T03:40:41.892Z,100.00
2023-03-19T03:43:10.828Z,100.00
2023-03-19T03:45:38.981Z,100.00
2023-03-19T03:48:08.336Z,100.00
2023-03-19T03:50:38.902Z,100.00
2023-03-19T03:53:12.635Z,100.00
2023-03-19T03:55:41.630Z,100.00
2023-03-19T03:58:10.175Z,100.00
2023-03-19T04:00:38.827Z,100.00
2023-03-19T04:03:08.833Z,100.00
2023-03-19T04:05:38.487Z,100.00
2023-03-19T04:08:08.033Z,100.00
2023-03-19T04:10:39.434Z,100.00
2023-03-19T04:13:07.308Z,100.00
2023-03-19T04:15:35.871Z,100.00
2023-03-19T04:18:04.435Z,100.00
2023-03-19T04:20:33.549Z,100.00
2023-03-19T04:23:02.211Z,100.00
2023-03-19T04:25:31.747Z,100.00
2023-03-19T04:27:59.823Z,100.00
2023-03-19T04:30:29.906Z,100.00
2023-03-19T04:32:58.714Z,100.00
2023-03-19T04:35:27.414Z,100.00
2023-03-19T04:37:55.679Z,100.00
2023-03-19T04:40:24.472Z,100.00
2023-03-19T04:42:52.651Z,100.00
2023-03-19T04:45:33.180Z,100.00
2023-03-19T04:48:01.896Z,100.00
2023-03-19T04:50:32.875Z,100.00
2023-03-19T04:53:02.347Z,100.00
2023-03-19T04:55:30.477Z,100.00
2023-03-19T04:58:11.945Z,100.00
2023-03-19T05:00:42.061Z,100.00
2023-03-19T05:03:10.091Z,100.00
2023-03-19T05:05:38.765Z,100.00
2023-03-19T05:08:09.831Z,100.00
2023-03-19T05:10:38.409Z,100.00
2023-03-19T05:13:07.599Z,100.00
2023-03-19T05:15:44.019Z,100.00
2023-03-19T05:18:13.969Z,100.00
2023-03-19T05:20:45.690Z,100.00
2023-03-19T05:23:23.261Z,100.00
2023-03-19T05:26:19.384Z,100.00
2023-03-19T05:29:10.890Z,100.00
2023-03-19T05:32:16.508Z,100.00
2023-03-19T05:34:45.854Z,100.00
2023-03-19T05:37:13.970Z,100.00
2023-03-19T05:39:45.405Z,100.00
2023-03-19T05:42:15.127Z,100.00
2023-03-19T05:44:43.966Z,100.00
2023-03-19T05:47:18.532Z,100.00
2023-03-19T05:49:53.965Z,100.00
2023-03-19T05:52:22.041Z,100.00
2023-03-19T05:54:51.055Z,100.00
2023-03-19T05:57:41.365Z,100.00
2023-03-19T06:00:19.245Z,100.00
2023-03-19T06:02:49.820Z,100.00
2023-03-19T06:05:43.264Z,100.00
2023-03-19T06:08:30.158Z,100.00
2023-03-19T06:11:18.195Z,100.00
2023-03-19T06:13:52.679Z,100.00
2023-03-19T06:16:20.907Z,100.00
2023-03-19T06:18:53.883Z,100.00
2023-03-19T06:21:22.088Z,100.00
2023-03-19T06:23:51.557Z,100.00
2023-03-19T06:26:25.962Z,100.00
2023-03-19T06:28:56.538Z,100.00
2023-03-19T06:31:25.397Z,100.00
2023-03-19T06:34:07.640Z,100.00
2023-03-19T06:36:42.098Z,100.00
2023-03-19T06:39:13.680Z,100.00
2023-03-19T06:41:42.182Z,100.00
2023-03-19T06:44:17.801Z,100.00
2023-03-19T06:46:46.287Z,100.00
2023-03-19T06:49:15.606Z,100.00
2023-03-19T06:51:44.484Z,100.00
2023-03-19T06:54:12.379Z,100.00
2023-03-19T06:56:40.814Z,100.00
2023-03-19T06:59:13.355Z,100.00
2023-03-19T07:01:43.523Z,100.00
2023-03-19T07:04:12.058Z,100.00
2023-03-19T07:06:40.180Z,100.00
2023-03-19T07:09:08.480Z,100.00
2023-03-19T07:11:37.338Z,100.00
2023-03-19T07:14:05.655Z,100.00
2023-03-19T07:16:33.845Z,100.00
2023-03-19T07:19:02.003Z,100.00
2023-03-19T07:21:30.932Z,100.00
2023-03-19T07:23:59.107Z,100.00
2023-03-19T07:26:27.867Z,100.00
2023-03-19T07:28:56.270Z,100.00
2023-03-19T07:31:25.765Z,100.00
2023-03-19T07:33:55.989Z,100.00
2023-03-19T07:36:24.660Z,100.00
2023-03-19T07:38:52.998Z,100.00
2023-03-19T07:41:21.877Z,100.00
2023-03-19T07:43:51.867Z,100.00
2023-03-19T07:46:20.097Z,100.00
2023-03-19T07:48:48.207Z,100.00
2023-03-19T07:51:16.628Z,100.00
2023-03-19T07:53:44.607Z,100.00
2023-03-19T07:56:13.271Z,100.00
2023-03-19T07:58:41.604Z,100.00
2023-03-19T08:01:10.174Z,100.00
2023-03-19T08:03:38.790Z,100.00
2023-03-19T08:06:07.127Z,100.00
2023-03-19T08:08:35.166Z,100.00
2023-03-19T08:11:04.099Z,100.00
2023-03-19T08:13:32.284Z,100.00
2023-03-19T08:16:00.634Z,100.00
2023-03-19T08:18:28.672Z,100.00
2023-03-19T08:20:56.913Z,100.00
2023-03-19T08:23:24.870Z,100.00
2023-03-19T08:25:53.741Z,100.00
2023-03-19T08:28:22.072Z,100.00
2023-03-19T08:30:50.205Z,100.00
2023-03-19T08:33:19.765Z,100.00
2023-03-19T08:35:47.949Z,100.00
2023-03-19T08:38:16.790Z,100.00
2023-03-19T08:40:44.938Z,100.00
2023-03-19T08:43:14.437Z,100.00
2023-03-19T08:45:42.629Z,98.95
2023-03-19T08:48:11.614Z,99.15
2023-03-19T08:50:40.043Z,99.83
2023-03-19T08:53:08.590Z,99.16
2023-03-19T08:55:36.762Z,97.22
2023-03-19T08:58:05.017Z,97.27
2023-03-19T09:00:33.348Z,93.51
2023-03-19T09:03:01.879Z,92.56
2023-03-19T09:05:30.085Z,92.85
2023-03-19T09:07:57.992Z,91.21
2023-03-19T09:10:26.686Z,89.21
2023-03-19T09:12:55.031Z,88.09
2023-03-19T09:15:23.520Z,87.12
2023-03-19T09:17:52.879Z,85.56
2023-03-19T09:20:21.888Z,86.89
2023-03-19T09:22:49.924Z,85.22
2023-03-19T09:25:18.303Z,85.18
2023-03-19T09:27:46.432Z,85.57
2023-03-19T09:30:15.375Z,86.21
2023-03-19T09:32:45.090Z,83.88
2023-03-19T09:35:13.344Z,80.40
2023-03-19T09:37:41.518Z,82.12
2023-03-19T09:40:35.808Z,80.85
2023-03-19T09:43:34.990Z,80.77
2023-03-19T09:46:10.451Z,80.56
2023-03-19T09:48:56.211Z,78.20
2023-03-19T09:51:52.565Z,80.52
2023-03-19T09:54:34.001Z,77.88
2023-03-19T09:57:02.445Z,76.61
2023-03-19T09:59:31.122Z,77.91
2023-03-19T10:02:22.663Z,76.91
2023-03-19T10:05:24.525Z,76.16
2023-03-19T10:07:56.183Z,74.19
2023-03-19T10:11:37.119Z,73.43
2023-03-19T10:14:43.490Z,73.48
2023-03-19T10:17:25.781Z,71.93
2023-03-19T10:20:19.166Z,67.87
2023-03-19T10:22:58.330Z,68.84
2023-03-19T10:25:29.820Z,67.12
2023-03-19T10:28:05.857Z,65.83
2023-03-19T10:30:35.235Z,67.31
2023-03-19T10:33:24.671Z,65.90
2023-03-19T10:36:08.462Z,65.39
2023-03-19T10:38:44.570Z,64.96
2023-03-19T10:41:38.721Z,64.84
2023-03-19T10:44:17.509Z,64.79
2023-03-19T10:46:45.789Z,62.29
2023-03-19T10:49:17.058Z,62.83
2023-03-19T10:51:46.980Z,63.79
2023-03-19T10:54:28.266Z,63.58
2023-03-19T10:56:59.250Z,63.49
2023-03-19T10:59:30.435Z,63.33
2023-03-19T11:02:23.920Z,62.31
2023-03-19T11:05:14.842Z,62.77
2023-03-19T11:07:42.997Z,62.34
2023-03-19T11:10:16.452Z,61.27
2023-03-19T11:12:55.617Z,60.77
2023-03-19T11:15:38.039Z,59.61
2023-03-19T11:18:24.665Z,60.06
2023-03-19T11:21:04.476Z,60.11
2023-03-19T11:23:42.281Z,61.54
2023-03-19T11:26:18.840Z,61.08
2023-03-19T11:28:52.491Z,61.91
2023-03-19T11:32:21.261Z,60.89
2023-03-19T11:35:03.674Z,60.56
2023-03-19T11:37:53.402Z,60.03
2023-03-19T11:40:44.970Z,60.69
2023-03-19T11:43:57.652Z,60.29
2023-03-19T11:47:26.386Z,61.67
2023-03-19T11:50:27.622Z,59.38
2023-03-19T11:53:32.097Z,59.11
2023-03-19T11:56:19.853Z,58.74
2023-03-19T11:59:29.957Z,59.98
2023-03-19T12:02:27.814Z,59.16
2023-03-19T12:05:38.383Z,59.47
2023-03-19T12:08:38.269Z,60.66
2023-03-19T12:11:27.044Z,58.13
2023-03-19T12:14:32.887Z,57.57
2023-03-19T12:17:46.147Z,58.35
2023-03-19T12:21:30.668Z,59.65
2023-03-19T12:24:29.012Z,59.78
2023-03-19T12:27:40.060Z,58.07
2023-03-19T12:30:39.344Z,58.42
2023-03-19T12:33:22.163Z,58.34
2023-03-19T12:35:56.505Z,57.21
2023-03-19T12:38:48.563Z,58.56
2023-03-19T12:41:31.757Z,60.12
2023-03-19T12:44:28.473Z,58.04
2023-03-19T12:47:17.246Z,58.20
2023-03-19T12:50:05.705Z,58.70
2023-03-19T12:52:49.570Z,59.99
2023-03-19T12:55:20.744Z,59.35
2023-03-19T12:57:58.826Z,58.74
2023-03-19T13:00:51.746Z,58.38
2023-03-19T13:03:22.838Z,59.33
2023-03-19T13:06:20.921Z,57.40
2023-03-19T13:09:20.462Z,56.87
2023-03-19T13:12:10.755Z,56.84
2023-03-19T13:14:50.376Z,57.15
2023-03-19T13:17:37.711Z,57.19
2023-03-19T13:20:24.991Z,58.61
2023-03-19T13:22:59.470Z,58.09
2023-03-19T13:25:42.914Z,56.15
2023-03-19T13:28:13.306Z,58.40
2023-03-19T13:31:05.093Z,57.04
2023-03-19T13:33:38.864Z,58.43
2023-03-19T13:36:15.365Z,58.72
2023-03-19T13:38:50.758Z,59.60
2023-03-19T13:41:38.025Z,59.50
2023-03-19T13:45:03.554Z,60.95
2023-03-19T13:47:32.795Z,61.21
2023-03-19T13:50:09.003Z,61.66
2023-03-19T13:53:32.625Z,61.86
2023-03-19T13:56:26.284Z,61.66
2023-03-19T13:59:27.274Z,60.34
2023-03-19T14:01:56.904Z,60.47
2023-03-19T14:04:34.598Z,59.71
2023-03-19T14:07:16.276Z,60.86
2023-03-19T14:09:57.951Z,62.08
2023-03-19T14:12:38.361Z,63.00
2023-03-19T14:15:12.653Z,62.07
2023-03-19T14:18:06.282Z,62.57
2023-03-19T14:20:48.372Z,63.42
2023-03-19T14:23:39.654Z,62.23
2023-03-19T14:26:31.755Z,60.45
2023-03-19T14:29:06.112Z,61.25
2023-03-19T14:31:54.530Z,62.28
2023-03-19T14:34:40.706Z,61.28
2023-03-19T14:37:40.815Z,60.81
2023-03-19T14:40:41.687Z,61.52
2023-03-19T14:43:35.077Z,60.84
2023-03-19T14:46:05.251Z,63.87
2023-03-19T14:48:55.199Z,63.86
2023-03-19T14:51:50.791Z,62.66
2023-03-19T14:54:27.757Z,62.16
2023-03-19T14:56:58.641Z,61.82
2023-03-19T14:59:36.695Z,63.10
2023-03-19T15:02:20.920Z,64.47
2023-03-19T15:04:50.192Z,63.10
2023-03-19T15:07:25.427Z,64.58
2023-03-19T15:09:56.558Z,64.82
2023-03-19T15:13:02.727Z,64.53
2023-03-19T15:16:20.951Z,64.13
2023-03-19T15:18:50.879Z,63.41
2023-03-19T15:21:20.574Z,64.40
2023-03-19T15:23:50.203Z,65.55
2023-03-19T15:26:37.200Z,66.28
2023-03-19T15:29:06.260Z,65.10
2023-03-19T15:31:53.966Z,64.80
2023-03-19T15:34:30.669Z,66.90
2023-03-19T15:37:12.893Z,65.11
2023-03-19T15:39:50.630Z,65.03
2023-03-19T15:42:23.008Z,66.17
2023-03-19T15:45:02.746Z,66.65
2023-03-19T15:47:34.351Z,67.16
2023-03-19T15:50:12.799Z,67.52
2023-03-19T15:52:46.416Z,68.72
2023-03-19T15:55:16.944Z,68.92
2023-03-19T15:57:46.462Z,70.40
2023-03-19T16:00:15.519Z,71.32
2023-03-19T16:02:47.368Z,72.63
2023-03-19T16:05:34.876Z,73.14
2023-03-19T16:08:17.254Z,73.52
2023-03-19T16:10:47.528Z,74.24
2023-03-19T16:13:31.192Z,74.74
2023-03-19T16:16:08.768Z,75.41
2023-03-19T16:18:54.260Z,76.10
2023-03-19T16:21:39.266Z,77.41
2023-03-19T16:24:27.811Z,78.38
2023-03-19T16:26:57.994Z,79.10
2023-03-19T16:29:43.907Z,79.66
2023-03-19T16:32:30.570Z,80.18
2023-03-19T16:35:16.749Z,80.88
2023-03-19T16:37:49.913Z,81.06
2023-03-19T16:40:17.911Z,81.31
2023-03-19T16:42:51.027Z,81.86
2023-03-19T16:45:20.446Z,81.92
2023-03-19T16:47:54.629Z,82.00
2023-03-19T16:50:33.795Z,81.77
2023-03-19T16:53:19.853Z,81.78
2023-03-19T16:55:48.654Z,82.70
2023-03-19T16:58:42.726Z,82.24
2023-03-19T17:01:23.546Z,82.99
2023-03-19T17:03:52.232Z,84.36
2023-03-19T17:06:21.892Z,85.47
2023-03-19T17:08:50.584Z,86.77
2023-03-19T17:11:29.694Z,88.27
2023-03-19T17:13:59.518Z,88.62
2023-03-19T17:16:30.058Z,88.80
2023-03-19T17:18:58.383Z,88.71
2023-03-19T17:21:33.088Z,88.66
2023-03-19T17:24:28.251Z,89.64
2023-03-19T17:27:00.228Z,90.36
2023-03-19T17:29:30.705Z,91.36
2023-03-19T17:32:04.444Z,92.14
2023-03-19T17:34:33.108Z,92.65
2023-03-19T17:37:04.081Z,92.80
2023-03-19T17:39:33.070Z,92.70
2023-03-19T17:42:01.167Z,92.93
2023-03-19T17:44:29.723Z,93.51
2023-03-19T17:46:58.096Z,93.86
2023-03-19T17:49:30.223Z,94.85
2023-03-19T17:51:59.502Z,96.08
2023-03-19T17:54:28.053Z,96.79
2023-03-19T17:56:56.556Z,97.84
2023-03-19T17:59:25.059Z,98.27
2023-03-19T18:01:53.384Z,98.08
2023-03-19T18:04:22.909Z,99.32
2023-03-19T18:06:55.827Z,99.09
2023-03-19T18:09:30.646Z,99.29
2023-03-19T18:11:59.702Z,100.00
2023-03-19T18:14:28.633Z,100.00
2023-03-19T18:16:57.784Z,100.00
2023-03-19T18:19:36.823Z,100.00
2023-03-19T18:22:18.570Z,100.00
2023-03-19T18:24:47.213Z,100.00
2023-03-19T18:27:15.597Z,100.00
2023-03-19T18:29:44.184Z,100.00
2023-03-19T18:32:26.382Z,100.00
2023-03-19T18:34:54.821Z,100.00
2023-03-19T18:37:23.452Z,100.00
2023-03-19T18:39:51.815Z,100.00
2023-03-19T18:42:20.340Z,100.00
2023-03-19T18:44:48.531Z,100.00
2023-03-19T18:47:17.150Z,100.00
2023-03-19T18:49:45.429Z,100.00
2023-03-19T18:52:18.582Z,100.00
2023-03-19T18:54:47.974Z,100.00
2023-03-19T18:57:17.200Z,100.00
2023-03-19T18:59:46.325Z,100.00
2023-03-19T19:02:35.272Z,100.00
2023-03-19T19:05:04.046Z,100.00
2023-03-19T19:07:32.959Z,100.00
2023-03-19T19:10:01.458Z,100.00
2023-03-19T19:12:29.673Z,100.00
2023-03-19T19:15:05.311Z,100.00
2023-03-19T19:17:35.401Z,100.00
2023-03-19T19:20:03.843Z,100.00
2023-03-19T19:22:32.015Z,100.00
2023-03-19T19:25:00.324Z,100.00
2023-03-19T19:27:28.999Z,100.00
2023-03-19T19:29:57.308Z,100.00
2023-03-19T19:32:29.741Z,100.00
2023-03-19T19:34:58.008Z,100.00
2023-03-19T19:37:26.228Z,100.00
2023-03-19T19:39:54.435Z,100.00
2023-03-19T19:42:23.707Z,100.00
2023-03-19T19:44:55.654Z,100.00
2023-03-19T19:47:23.878Z,100.00
2023-03-19T19:49:52.209Z,100.00
2023-03-19T19:52:20.981Z,100.00
2023-03-19T19:54:55.341Z,100.00
2023-03-19T19:57:27.279Z,100.00
2023-03-19T19:59:58.172Z,100.00
2023-03-19T20:02:30.421Z,100.00
2023-03-19T20:05:04.185Z,100.00
2023-03-19T20:07:32.723Z,100.00
2023-03-19T20:10:01.506Z,100.00
2023-03-19T20:12:34.493Z,100.00
2023-03-19T20:15:03.341Z,100.00
2023-03-19T20:17:32.097Z,100.00
2023-03-19T20:20:00.866Z,100.00
2023-03-19T20:22:29.990Z,100.00
2023-03-19T20:24:59.246Z,100.00
2023-03-19T20:27:33.017Z,100.00
2023-03-19T20:30:02.438Z,100.00
2023-03-19T20:32:41.109Z,100.00
2023-03-19T20:35:23.714Z,100.00
2023-03-19T20:37:54.535Z,100.00
2023-03-19T20:40:54.832Z,100.00
2023-03-19T20:43:30.628Z,100.00
2023-03-19T20:46:03.171Z,100.00
2023-03-19T20:48:33.126Z,100.00
2023-03-19T20:51:02.809Z,100.00
2023-03-19T20:53:32.409Z,100.00
2023-03-19T20:56:03.640Z,100.00
2023-03-19T20:58:37.174Z,100.00
2023-03-19T21:01:06.433Z,100.00
2023-03-19T21:03:34.996Z,100.00
2023-03-19T21:06:20.213Z,100.00
2023-03-19T21:08:57.390Z,100.00
2023-03-19T21:11:40.919Z,100.00
2023-03-19T21:14:16.324Z,100.00
2023-03-19T21:16:45.289Z,100.00
2023-03-19T21:19:13.747Z,100.00
2023-03-19T21:21:42.962Z,100.00
2023-03-19T21:24:20.928Z,100.00
2023-03-19T21:26:55.143Z,100.00
2023-03-19T21:29:33.787Z,100.00
2023-03-19T21:32:03.450Z,100.00
2023-03-19T21:34:32.287Z,100.00
2023-03-19T21:37:01.058Z,100.00
2023-03-19T21:39:29.324Z,100.00
2023-03-19T21:41:59.164Z,100.00
2023-03-19T21:44:29.884Z,100.00
2023-03-19T21:46:58.843Z,100.00
2023-03-19T21:49:27.285Z,100.00
2023-03-19T21:51:57.588Z,100.00
2023-03-19T21:54:27.259Z,100.00
2023-03-19T21:56:55.704Z,100.00
2023-03-19T21:59:32.612Z,100.00
2023-03-19T22:02:02.341Z,100.00
2023-03-19T22:04:30.470Z,100.00
2023-03-19T22:06:59.005Z,100.00
2023-03-19T22:09:27.359Z,100.00
2023-03-19T22:11:55.956Z,100.00
2023-03-19T22:14:28.364Z,100.00
2023-03-19T22:16:57.109Z,100.00
2023-03-19T22:19:25.942Z,100.00
2023-03-19T22:21:54.275Z,100.00
2023-03-19T22:24:23.143Z,100.00
2023-03-19T22:26:56.970Z,100.00
2023-03-19T22:29:26.153Z,100.00
2023-03-19T22:31:56.398Z,100.00
2023-03-19T22:34:31.055Z,100.00
2023-03-19T22:37:00.246Z,100.00
2023-03-19T22:39:28.399Z,100.00
2023-03-19T22:41:56.747Z,100.00
2023-03-19T22:44:31.693Z,100.00
2023-03-19T22:47:02.111Z,100.00
2023-03-19T22:49:31.578Z,100.00
2023-03-19T22:51:59.860Z,100.00
2023-03-19T22:54:28.128Z,100.00
2023-03-19T22:56:56.159Z,100.00
2023-03-19T22:59:24.706Z,100.00
2023-03-19T23:01:52.850Z,100.00
2023-03-19T23:04:33.344Z,100.00
2023-03-19T23:07:01.559Z,100.00
2023-03-19T23:09:33.486Z,100.00
2023-03-19T23:12:03.349Z,100.00
2023-03-19T23:14:32.318Z,100.00
2023-03-19T23:17:06.838Z,100.00
2023-03-19T23:19:37.592Z,100.00
2023-03-19T23:22:14.256Z,100.00
2023-03-19T23:24:42.610Z,100.00
2023-03-19T23:27:26.336Z,100.00
2023-03-19T23:29:54.844Z,100.00
2023-03-19T23:32:23.235Z,100.00
2023-03-19T23:35:01.810Z,100.00
2023-03-19T23:37:30.127Z,100.00
2023-03-19T23:39:58.227Z,100.00
2023-03-19T23:42:29.895Z,100.00
2023-03-19T23:45:02.664Z,100.00
2023-03-19T23:47:31.741Z,100.00
2023-03-19T23:49:59.976Z,100.00
2023-03-19T23:52:27.853Z,100.00
2023-03-19T23:54:57.684Z,100.00
2023-03-19T23:57:26.708Z,100.00
2023-03-19T23:59:54.804Z,100.00
